createdAt,value
2019-03-30T00:01:52.033Z,68.10
2019-03-30T00:04:21.798Z,68.30
2019-03-30T00:06:51.594Z,68.10
2019-03-30T00:09:22.160Z,68.30
2019-03-30T00:11:51.932Z,68.30
2019-03-30T00:14:21.892Z,68.40
2019-03-30T00:16:55.255Z,68.50
2019-03-30T00:19:34.757Z,68.30
2019-03-30T00:21:56.511Z,69.30
2019-03-30T00:24:26.308Z,68.60
2019-03-30T00:26:56.083Z,69.40
2019-03-30T00:29:25.884Z,68.70
2019-03-30T00:31:55.682Z,68.90
2019-03-30T00:34:25.515Z,69.10
2019-03-30T00:36:55.372Z,69.20
2019-03-30T00:39:25.140Z,69.20
2019-03-30T00:41:54.939Z,69.20
2019-03-30T00:44:24.813Z,69.20
2019-03-30T00:46:54.628Z,69.60
2019-03-30T00:49:24.421Z,69.10
2019-03-30T00:51:54.244Z,69.20
2019-03-30T00:54:24.033Z,69.40
2019-03-30T00:56:53.823Z,69.40
2019-03-30T00:59:23.603Z,69.60
2019-03-30T01:01:53.469Z,69.80
2019-03-30T01:04:23.333Z,69.70
2019-03-30T01:06:53.116Z,69.90
2019-03-30T01:09:22.930Z,69.90
2019-03-30T01:11:52.709Z,69.90
2019-03-30T01:14:22.554Z,70.10
2019-03-30T01:16:52.364Z,70.10
2019-03-30T01:19:22.140Z,70.20
2019-03-30T01:21:51.964Z,70.40
2019-03-30T01:24:21.746Z,70.80
2019-03-30T01:26:51.591Z,71.00
2019-03-30T01:29:21.380Z,71.20
2019-03-30T01:31:51.228Z,71.20
2019-03-30T01:34:21.004Z,71.30
2019-03-30T01:36:50.792Z,71.20
2019-03-30T01:39:20.567Z,71.30
2019-03-30T01:41:50.364Z,71.60
2019-03-30T01:44:20.139Z,71.90
2019-03-30T01:46:49.929Z,72.20
2019-03-30T01:49:19.711Z,72.30
2019-03-30T01:51:49.501Z,72.20
2019-03-30T01:54:19.277Z,72.20
2019-03-30T01:56:49.120Z,72.30
2019-03-30T01:59:18.903Z,72.50
2019-03-30T02:01:48.703Z,72.40
2019-03-30T02:04:18.495Z,72.40
2019-03-30T02:06:48.273Z,72.80
2019-03-30T02:09:18.127Z,72.30
2019-03-30T02:11:47.925Z,72.30
2019-03-30T02:14:17.735Z,72.30
2019-03-30T02:16:47.541Z,72.30
2019-03-30T02:19:17.307Z,72.20
2019-03-30T02:21:47.103Z,72.20
2019-03-30T02:24:16.899Z,72.80
2019-03-30T02:26:46.679Z,73.10
2019-03-30T02:29:17.522Z,73.20
2019-03-30T02:31:47.308Z,73.30
2019-03-30T02:34:18.155Z,73.30
2019-03-30T02:36:47.944Z,73.60
2019-03-30T02:39:17.716Z,74.00
2019-03-30T02:41:47.505Z,74.00
2019-03-30T02:44:17.328Z,74.00
2019-03-30T02:46:47.129Z,74.20
2019-03-30T02:49:16.904Z,74.30
2019-03-30T02:51:46.696Z,74.20
2019-03-30T02:54:16.468Z,74.40
2019-03-30T02:56:46.268Z,74.30
2019-03-30T02:59:17.136Z,74.40
2019-03-30T03:01:46.912Z,76.30
2019-03-30T03:04:16.703Z,75.90
2019-03-30T03:06:46.474Z,75.90
2019-03-30T03:09:16.259Z,76.10
2019-03-30T03:11:46.029Z,76.20
2019-03-30T03:14:15.813Z,76.60
2019-03-30T03:16:45.600Z,76.80
2019-03-30T03:19:15.372Z,76.90
2019-03-30T03:21:45.141Z,76.80
2019-03-30T03:24:14.949Z,76.70
2019-03-30T03:26:44.719Z,76.80
2019-03-30T03:29:15.578Z,76.70
2019-03-30T03:31:45.350Z,76.60
2019-03-30T03:34:15.144Z,76.70
2019-03-30T03:36:44.918Z,77.00
2019-03-30T03:39:14.722Z,76.90
2019-03-30T03:41:44.488Z,76.90
2019-03-30T03:44:14.272Z,77.10
2019-03-30T03:46:44.055Z,77.30
2019-03-30T03:49:13.843Z,77.40
2019-03-30T03:51:44.456Z,77.80
2019-03-30T03:54:14.321Z,77.70
2019-03-30T03:56:47.029Z,78.00
2019-03-30T03:59:17.647Z,78.10
2019-03-30T04:01:48.968Z,77.90
2019-03-30T04:04:20.366Z,78.10
2019-03-30T04:06:52.731Z,77.60
2019-03-30T04:09:25.559Z,77.80
2019-03-30T04:11:57.236Z,77.90
2019-03-30T04:14:27.199Z,77.70
2019-03-30T04:16:57.027Z,77.50
2019-03-30T04:19:26.814Z,77.40
2019-03-30T04:21:56.590Z,77.50
2019-03-30T04:24:26.364Z,77.50
2019-03-30T04:26:56.220Z,77.50
2019-03-30T04:29:26.000Z,77.30
2019-03-30T04:31:55.787Z,77.40
2019-03-30T04:34:25.615Z,77.60
2019-03-30T04:36:55.425Z,77.90
2019-03-30T04:39:25.188Z,78.30
2019-03-30T04:41:54.967Z,78.60
2019-03-30T04:44:24.751Z,78.70
2019-03-30T04:46:54.590Z,78.60
2019-03-30T04:49:24.387Z,78.90
2019-03-30T04:51:57.918Z,78.80
2019-03-30T04:54:26.722Z,78.60
2019-03-30T04:56:56.505Z,78.60
2019-03-30T04:59:26.279Z,78.60
2019-03-30T05:01:56.059Z,78.40
2019-03-30T05:04:25.839Z,78.70
2019-03-30T05:06:55.637Z,78.50
2019-03-30T05:09:25.403Z,78.50
2019-03-30T05:11:55.973Z,78.70
2019-03-30T05:14:25.753Z,78.60
2019-03-30T05:16:55.562Z,78.60
2019-03-30T05:19:25.336Z,78.70
2019-03-30T05:21:55.127Z,79.00
2019-03-30T05:24:24.902Z,79.10
2019-03-30T05:26:54.683Z,78.80
2019-03-30T05:29:25.526Z,78.60
2019-03-30T05:31:55.333Z,78.60
2019-03-30T05:34:25.118Z,78.90
2019-03-30T05:36:54.911Z,79.10
2019-03-30T05:39:24.706Z,79.20
2019-03-30T05:41:54.499Z,79.40
2019-03-30T05:44:25.242Z,79.30
2019-03-30T05:46:55.118Z,79.50
2019-03-30T05:49:24.887Z,79.80
2019-03-30T05:51:54.685Z,79.80
2019-03-30T05:54:24.537Z,79.70
2019-03-30T05:56:54.313Z,79.40
2019-03-30T05:59:24.117Z,79.30
2019-03-30T06:01:53.892Z,78.80
2019-03-30T06:04:23.684Z,78.70
2019-03-30T06:06:53.469Z,79.30
2019-03-30T06:09:23.277Z,78.60
2019-03-30T06:11:53.056Z,78.70
2019-03-30T06:14:22.849Z,78.70
2019-03-30T06:16:52.617Z,78.30
2019-03-30T06:19:22.421Z,77.90
2019-03-30T06:21:57.029Z,78.10
2019-03-30T06:24:26.793Z,78.10
2019-03-30T06:26:56.561Z,78.10
2019-03-30T06:29:26.355Z,77.60
2019-03-30T06:31:56.141Z,78.50
2019-03-30T06:34:25.936Z,78.60
2019-03-30T06:36:55.701Z,78.20
2019-03-30T06:39:25.502Z,77.60
2019-03-30T06:41:55.279Z,77.90
2019-03-30T06:44:25.064Z,77.60
2019-03-30T06:46:54.867Z,77.90
2019-03-30T06:49:24.647Z,78.00
2019-03-30T06:51:54.455Z,78.00
2019-03-30T06:54:24.237Z,77.70
2019-03-30T06:56:54.035Z,77.40
2019-03-30T06:59:23.820Z,77.30
2019-03-30T07:01:53.773Z,77.40
2019-03-30T07:04:23.625Z,77.50
2019-03-30T07:06:54.557Z,77.60
2019-03-30T07:09:27.436Z,77.30
2019-03-30T07:11:59.599Z,77.10
2019-03-30T07:14:32.193Z,75.80
2019-03-30T07:17:03.585Z,75.50
2019-03-30T07:19:36.447Z,75.40
2019-03-30T07:22:06.263Z,75.40
2019-03-30T07:24:36.054Z,75.30
2019-03-30T07:27:05.857Z,74.80
2019-03-30T07:29:35.655Z,75.00
2019-03-30T07:32:05.468Z,74.60
2019-03-30T07:34:36.327Z,74.60
2019-03-30T07:37:06.122Z,74.70
2019-03-30T07:39:35.930Z,74.70
2019-03-30T07:42:05.719Z,74.60
2019-03-30T07:44:35.526Z,74.70
2019-03-30T07:47:05.312Z,74.30
2019-03-30T07:49:35.116Z,74.10
2019-03-30T07:52:04.931Z,74.10
2019-03-30T07:54:34.710Z,73.90
2019-03-30T07:57:11.054Z,73.80
2019-03-30T07:59:36.028Z,73.10
2019-03-30T08:02:05.850Z,73.00
2019-03-30T08:04:38.598Z,72.70
2019-03-30T08:07:08.438Z,72.80
2019-03-30T08:09:39.007Z,72.80
2019-03-30T08:12:08.796Z,72.10
2019-03-30T08:14:38.622Z,72.20
2019-03-30T08:17:08.419Z,72.00
2019-03-30T08:19:38.244Z,71.70
2019-03-30T08:22:08.143Z,71.80
2019-03-30T08:24:37.958Z,71.80
2019-03-30T08:27:10.696Z,71.80
2019-03-30T08:29:40.535Z,71.70
2019-03-30T08:32:10.311Z,71.10
2019-03-30T08:34:41.100Z,71.20
2019-03-30T08:37:10.882Z,71.30
2019-03-30T08:39:40.688Z,70.80
2019-03-30T08:42:10.488Z,70.70
2019-03-30T08:44:40.290Z,70.40
2019-03-30T08:47:10.102Z,69.80
2019-03-30T08:49:39.888Z,69.70
2019-03-30T08:52:09.665Z,69.40
2019-03-30T08:54:39.458Z,69.10
2019-03-30T08:57:09.248Z,68.50
2019-03-30T08:59:39.139Z,68.20
2019-03-30T09:02:08.926Z,68.00
2019-03-30T09:04:38.731Z,67.90
2019-03-30T09:07:08.534Z,67.70
2019-03-30T09:09:38.356Z,67.50
2019-03-30T09:12:08.154Z,67.40
2019-03-30T09:14:37.989Z,67.60
2019-03-30T09:17:07.788Z,68.50
2019-03-30T09:19:37.584Z,67.60
2019-03-30T09:22:07.430Z,67.20
2019-03-30T09:24:37.223Z,66.90
2019-03-30T09:27:07.996Z,66.70
2019-03-30T09:29:37.776Z,67.20
2019-03-30T09:32:14.414Z,65.60
2019-03-30T09:34:39.128Z,65.60
2019-03-30T09:37:08.921Z,65.00
2019-03-30T09:39:38.738Z,65.30
2019-03-30T09:42:08.531Z,64.50
2019-03-30T09:44:38.348Z,64.80
2019-03-30T09:47:08.128Z,62.60
2019-03-30T09:49:37.998Z,61.50
2019-03-30T09:52:07.790Z,60.70
2019-03-30T09:54:37.597Z,58.70
2019-03-30T09:57:07.424Z,57.80
2019-03-30T09:59:37.215Z,57.20
2019-03-30T10:02:07.001Z,57.80
2019-03-30T10:04:36.810Z,56.70
2019-03-30T10:07:06.592Z,55.00
2019-03-30T10:09:36.391Z,55.20
2019-03-30T10:12:06.176Z,55.00
2019-03-30T10:14:35.974Z,54.10
2019-03-30T10:17:07.290Z,54.90
2019-03-30T10:19:37.102Z,53.10
2019-03-30T10:22:06.918Z,53.20
2019-03-30T10:24:38.267Z,52.70
2019-03-30T10:27:08.192Z,51.40
2019-03-30T10:29:38.066Z,49.40
2019-03-30T10:32:07.859Z,49.90
2019-03-30T10:34:39.679Z,50.10
2019-03-30T10:37:09.157Z,48.30
2019-03-30T10:39:39.018Z,47.50
2019-03-30T10:42:08.808Z,48.30
2019-03-30T10:44:38.598Z,49.20
2019-03-30T10:47:08.391Z,47.00
2019-03-30T10:49:38.166Z,47.40
2019-03-30T10:52:08.022Z,47.40
2019-03-30T10:54:51.661Z,48.20
2019-03-30T10:57:09.343Z,48.00
2019-03-30T10:59:39.159Z,47.10
2019-03-30T11:02:08.956Z,47.50
2019-03-30T11:04:38.732Z,47.80
2019-03-30T11:07:08.518Z,47.40
2019-03-30T11:09:39.272Z,47.80
2019-03-30T11:12:09.064Z,45.60
2019-03-30T11:14:38.847Z,46.80
2019-03-30T11:17:08.631Z,45.60
2019-03-30T11:19:38.452Z,45.90
2019-03-30T11:22:08.242Z,46.60
2019-03-30T11:24:38.043Z,46.40
2019-03-30T11:27:07.827Z,46.90
2019-03-30T11:29:37.622Z,47.60
2019-03-30T11:32:07.394Z,45.80
2019-03-30T11:34:37.204Z,45.40
2019-03-30T11:37:06.984Z,44.80
2019-03-30T11:39:36.763Z,46.40
2019-03-30T11:42:06.533Z,46.00
2019-03-30T11:44:36.319Z,45.70
2019-03-30T11:47:06.136Z,45.70
2019-03-30T11:49:35.919Z,45.80
2019-03-30T11:52:05.725Z,46.50
2019-03-30T11:54:35.563Z,45.60
2019-03-30T11:57:06.355Z,45.60
2019-03-30T11:59:36.136Z,46.00
2019-03-30T12:02:05.995Z,46.90
2019-03-30T12:04:35.783Z,44.70
2019-03-30T12:07:05.591Z,45.30
2019-03-30T12:09:35.407Z,45.20
2019-03-30T12:12:05.244Z,46.20
2019-03-30T12:14:35.039Z,46.00
2019-03-30T12:17:04.823Z,45.60
2019-03-30T12:19:34.666Z,45.20
2019-03-30T12:22:04.438Z,45.70
2019-03-30T12:24:34.333Z,45.00
2019-03-30T12:27:04.163Z,43.80
2019-03-30T12:29:33.967Z,44.00
2019-03-30T12:32:03.743Z,44.80
2019-03-30T12:34:33.540Z,45.20
2019-03-30T12:37:03.318Z,44.60
2019-03-30T12:39:36.027Z,45.70
2019-03-30T12:42:05.820Z,43.80
2019-03-30T12:44:35.613Z,44.10
2019-03-30T12:47:05.426Z,45.20
2019-03-30T12:49:35.217Z,43.10
2019-03-30T12:52:05.001Z,44.40
2019-03-30T12:54:34.919Z,43.20
2019-03-30T12:57:04.705Z,45.40
2019-03-30T12:59:34.515Z,43.60
2019-03-30T13:02:04.317Z,42.60
2019-03-30T13:04:35.141Z,42.80
2019-03-30T13:07:04.940Z,42.20
2019-03-30T13:09:34.975Z,42.40
2019-03-30T13:12:05.875Z,42.90
2019-03-30T13:14:35.668Z,42.60
2019-03-30T13:17:05.450Z,41.10
2019-03-30T13:19:35.250Z,41.10
2019-03-30T13:22:06.008Z,41.00
2019-03-30T13:24:35.798Z,41.70
2019-03-30T13:27:05.586Z,41.00
2019-03-30T13:29:35.366Z,42.50
2019-03-30T13:32:05.266Z,40.70
2019-03-30T13:34:35.112Z,38.80
2019-03-30T13:37:10.642Z,39.30
2019-03-30T13:39:40.423Z,35.60
2019-03-30T13:42:10.220Z,31.10
2019-03-30T13:44:39.990Z,28.60
2019-03-30T13:47:09.810Z,27.60
2019-03-30T13:49:58.941Z,25.60
2019-03-30T13:52:28.729Z,25.10
2019-03-30T13:54:58.502Z,24.40
2019-03-30T13:57:28.322Z,25.00
2019-03-30T13:59:59.090Z,24.20
2019-03-30T14:02:28.992Z,24.30
2019-03-30T14:04:58.767Z,23.40
2019-03-30T14:07:28.556Z,23.50
2019-03-30T14:09:58.349Z,23.00
2019-03-30T14:12:28.140Z,22.60
2019-03-30T14:14:57.919Z,22.30
2019-03-30T14:17:27.730Z,22.60
2019-03-30T14:19:57.516Z,22.40
2019-03-30T14:22:27.286Z,21.70
2019-03-30T14:24:58.147Z,22.70
2019-03-30T14:27:27.924Z,22.00
2019-03-30T14:29:57.727Z,22.60
2019-03-30T14:32:27.509Z,22.10
2019-03-30T14:34:57.304Z,22.60
2019-03-30T14:37:27.092Z,22.60
2019-03-30T14:39:56.902Z,23.10
2019-03-30T14:42:26.668Z,23.30
2019-03-30T14:44:56.470Z,23.20
2019-03-30T14:47:26.275Z,22.80
2019-03-30T14:49:56.079Z,23.30
2019-03-30T14:52:25.880Z,23.70
2019-03-30T14:54:55.708Z,23.10
2019-03-30T14:57:25.551Z,23.50
2019-03-30T14:59:55.343Z,24.10
2019-03-30T15:02:27.921Z,24.80
2019-03-30T15:05:00.865Z,25.50
2019-03-30T15:07:29.252Z,25.70
2019-03-30T15:09:59.056Z,26.20
2019-03-30T15:12:28.871Z,26.70
2019-03-30T15:14:58.661Z,27.10
2019-03-30T15:17:28.457Z,27.60
2019-03-30T15:19:58.248Z,27.30
2019-03-30T15:22:28.053Z,27.50
2019-03-30T15:24:57.843Z,28.10
2019-03-30T15:27:27.640Z,28.40
2019-03-30T15:29:57.439Z,28.30
2019-03-30T15:32:27.239Z,28.80
2019-03-30T15:34:58.502Z,29.20
2019-03-30T15:37:28.423Z,29.30
2019-03-30T15:39:58.267Z,30.10
2019-03-30T15:42:28.146Z,30.00
2019-03-30T15:44:57.978Z,30.20
2019-03-30T15:47:27.896Z,31.10
2019-03-30T15:49:57.744Z,31.40
2019-03-30T15:52:27.523Z,32.40
2019-03-30T15:54:57.322Z,32.80
2019-03-30T15:57:27.119Z,33.40
2019-03-30T15:59:56.923Z,33.60
2019-03-30T16:02:26.703Z,33.90
2019-03-30T16:04:56.543Z,34.70
2019-03-30T16:07:26.373Z,34.90
2019-03-30T16:09:56.182Z,35.80
2019-03-30T16:12:25.960Z,35.90
2019-03-30T16:14:55.762Z,36.70
2019-03-30T16:17:25.592Z,37.20
2019-03-30T16:19:55.398Z,38.20
2019-03-30T16:22:25.203Z,37.60
2019-03-30T16:24:55.880Z,38.00
2019-03-30T16:27:29.097Z,38.40
2019-03-30T16:29:58.874Z,38.90
2019-03-30T16:32:28.820Z,38.80
2019-03-30T16:34:58.632Z,39.40
2019-03-30T16:37:28.420Z,39.40
2019-03-30T16:39:58.242Z,39.70
2019-03-30T16:42:28.096Z,40.10
2019-03-30T16:44:57.969Z,40.30
2019-03-30T16:47:27.798Z,40.30
2019-03-30T16:49:57.576Z,40.80
2019-03-30T16:52:27.352Z,41.10
2019-03-30T16:54:57.248Z,41.40
2019-03-30T16:57:27.022Z,41.50
2019-03-30T16:59:56.822Z,42.00
2019-03-30T17:02:26.654Z,42.50
2019-03-30T17:04:56.564Z,42.30
2019-03-30T17:07:26.348Z,42.30
2019-03-30T17:09:56.160Z,43.00
2019-03-30T17:12:25.950Z,43.00
2019-03-30T17:14:55.763Z,42.90
2019-03-30T17:17:26.701Z,43.20
2019-03-30T17:19:56.504Z,43.40
2019-03-30T17:22:26.306Z,43.10
2019-03-30T17:24:56.116Z,43.40
2019-03-30T17:27:25.897Z,44.00
2019-03-30T17:29:55.676Z,44.30
2019-03-30T17:32:25.548Z,44.30
2019-03-30T17:34:55.357Z,44.20
2019-03-30T17:37:25.188Z,44.50
2019-03-30T17:39:54.983Z,44.80
2019-03-30T17:42:24.787Z,45.20
2019-03-30T17:44:55.442Z,45.30
2019-03-30T17:47:25.276Z,45.40
2019-03-30T17:49:55.071Z,45.70
2019-03-30T17:52:24.875Z,46.30
2019-03-30T17:54:54.655Z,46.40
2019-03-30T17:57:24.461Z,46.70
2019-03-30T17:59:54.272Z,47.10
2019-03-30T18:02:24.132Z,47.40
2019-03-30T18:04:53.923Z,47.80
2019-03-30T18:07:23.715Z,47.90
2019-03-30T18:09:53.543Z,48.60
2019-03-30T18:12:23.375Z,48.50
2019-03-30T18:14:53.372Z,48.90
2019-03-30T18:17:23.323Z,49.20
2019-03-30T18:19:54.269Z,49.20
2019-03-30T18:22:24.138Z,49.40
2019-03-30T18:24:53.939Z,49.80
2019-03-30T18:27:23.731Z,49.70
2019-03-30T18:29:53.532Z,50.20
2019-03-30T18:32:23.457Z,50.40
2019-03-30T18:34:53.419Z,50.60
2019-03-30T18:37:24.403Z,50.50
2019-03-30T18:39:54.765Z,50.90
2019-03-30T18:42:25.183Z,50.70
2019-03-30T18:44:56.602Z,51.10
2019-03-30T18:47:27.043Z,51.20
2019-03-30T18:49:56.871Z,51.40
2019-03-30T18:52:26.811Z,51.50
2019-03-30T18:54:57.047Z,51.60
2019-03-30T18:57:26.861Z,51.90
2019-03-30T18:59:56.642Z,52.00
2019-03-30T19:02:26.448Z,52.20
2019-03-30T19:04:56.245Z,52.40
2019-03-30T19:07:26.075Z,52.50
2019-03-30T19:09:55.869Z,52.80
2019-03-30T19:12:26.773Z,53.00
2019-03-30T19:14:56.559Z,53.00
2019-03-30T19:17:26.367Z,53.20
2019-03-30T19:19:56.182Z,53.40
2019-03-30T19:22:25.999Z,53.50
2019-03-30T19:24:55.867Z,53.80
2019-03-30T19:27:25.679Z,54.10
2019-03-30T19:29:55.479Z,54.30
2019-03-30T19:32:25.264Z,54.40
2019-03-30T19:34:55.068Z,54.30
2019-03-30T19:37:24.856Z,54.40
2019-03-30T19:39:54.655Z,54.60
2019-03-30T19:42:24.462Z,54.60
2019-03-30T19:44:54.287Z,55.00
2019-03-30T19:47:25.199Z,55.00
2019-03-30T19:49:55.011Z,55.30
2019-03-30T19:52:39.013Z,55.10
2019-03-30T19:54:56.310Z,55.30
2019-03-30T19:57:27.905Z,55.50
2019-03-30T19:59:57.929Z,55.70
2019-03-30T20:02:27.712Z,55.50
2019-03-30T20:04:57.514Z,55.80
2019-03-30T20:07:27.325Z,55.90
2019-03-30T20:09:57.203Z,56.10
2019-03-30T20:12:27.059Z,56.90
2019-03-30T20:14:57.079Z,56.40
2019-03-30T20:17:26.887Z,56.70
2019-03-30T20:19:56.860Z,57.00
2019-03-30T20:22:26.647Z,57.30
2019-03-30T20:24:56.442Z,57.60
2019-03-30T20:27:26.252Z,57.50
2019-03-30T20:29:56.034Z,57.70
2019-03-30T20:32:25.840Z,57.80
2019-03-30T20:34:55.648Z,57.80
2019-03-30T20:37:26.406Z,58.00
2019-03-30T20:39:56.218Z,58.20
2019-03-30T20:42:26.078Z,58.50
2019-03-30T20:44:55.850Z,58.60
2019-03-30T20:47:25.655Z,58.60
2019-03-30T20:49:55.458Z,59.00
2019-03-30T20:52:25.384Z,59.00
2019-03-30T20:54:55.175Z,59.00
2019-03-30T20:57:24.987Z,59.10
2019-03-30T20:59:54.783Z,59.20
2019-03-30T21:02:26.184Z,59.40
2019-03-30T21:04:55.975Z,59.50
2019-03-30T21:07:25.815Z,59.80
2019-03-30T21:09:55.664Z,59.80
2019-03-30T21:12:27.029Z,59.80
2019-03-30T21:14:56.832Z,59.80
2019-03-30T21:17:26.639Z,60.90
2019-03-30T21:19:56.507Z,60.20
2019-03-30T21:22:26.317Z,60.30
2019-03-30T21:24:56.115Z,60.30
2019-03-30T21:27:26.001Z,60.30
2019-03-30T21:29:55.807Z,60.40
2019-03-30T21:32:25.604Z,60.50
2019-03-30T21:34:55.436Z,60.60
2019-03-30T21:37:25.233Z,60.80
2019-03-30T21:39:55.124Z,60.70
2019-03-30T21:42:26.192Z,60.80
2019-03-30T21:44:56.006Z,61.10
2019-03-30T21:47:25.880Z,61.20
2019-03-30T21:49:55.690Z,61.40
2019-03-30T21:52:25.491Z,61.50
2019-03-30T21:54:57.968Z,61.70
2019-03-30T21:57:26.818Z,61.80
2019-03-30T22:00:08.981Z,61.80
2019-03-30T22:02:28.114Z,62.10
2019-03-30T22:04:59.472Z,62.30
2019-03-30T22:07:29.340Z,62.20
2019-03-30T22:09:59.326Z,62.40
2019-03-30T22:12:29.302Z,62.40
2019-03-30T22:14:59.225Z,62.40
2019-03-30T22:17:29.088Z,62.40
2019-03-30T22:19:58.916Z,62.60
2019-03-30T22:22:28.724Z,62.80
2019-03-30T22:24:58.521Z,62.80
2019-03-30T22:27:28.370Z,62.80
2019-03-30T22:29:58.307Z,62.90
2019-03-30T22:32:28.163Z,63.10
2019-03-30T22:34:58.053Z,63.30
2019-03-30T22:37:27.921Z,63.30
2019-03-30T22:39:57.765Z,63.40
2019-03-30T22:42:27.652Z,63.60
2019-03-30T22:44:57.455Z,63.80
2019-03-30T22:47:28.835Z,63.90
2019-03-30T22:50:01.679Z,63.20
2019-03-30T22:52:31.475Z,63.90
2019-03-30T22:55:01.319Z,63.80
2019-03-30T22:57:34.147Z,64.00
2019-03-30T23:00:07.019Z,64.30
2019-03-30T23:02:40.941Z,64.40
2019-03-30T23:05:10.888Z,64.50
2019-03-30T23:07:40.760Z,64.80
2019-03-30T23:10:10.709Z,64.90
2019-03-30T23:12:40.537Z,65.00
2019-03-30T23:15:10.397Z,65.00
2019-03-30T23:17:40.323Z,64.90
2019-03-30T23:20:10.202Z,65.00
2019-03-30T23:22:40.010Z,65.00
2019-03-30T23:25:09.890Z,65.00
2019-03-30T23:27:39.720Z,65.10
2019-03-30T23:30:09.742Z,65.30
2019-03-30T23:32:39.559Z,65.30
2019-03-30T23:35:09.456Z,65.50
2019-03-30T23:37:40.335Z,65.50
2019-03-30T23:40:10.456Z,65.70
2019-03-30T23:42:40.408Z,65.90
2019-03-30T23:45:13.377Z,66.10
2019-03-30T23:47:43.241Z,66.20
2019-03-30T23:50:13.188Z,66.50
2019-03-30T23:52:43.020Z,66.50
2019-03-30T23:55:13.362Z,66.90
2019-03-30T23:57:43.233Z,66.90
